Akogare — JPDL — position and weather

sailwx.info

Track history (hours):
 
Tides and Currents Weather Stations Pressure Air Temp Water Temp Dewpoint Dewpoint Depression Visibility Wind Speed Wind Dir Waves Ship Positions

Akogare (Japan)

Ship's website: http://www.akogare.or.jp/eng/top.html

Last reported at 2017-Apr-09 12:36 UTC. Time now 2017-Apr-29 03:38 UTC.
Position N 34°36' E 134°56'.
Warning: this ship's position is 19 days out of date.

Length 52 m; draft 5.5 m.

Type: Sailing vessel. MMSI: 431005001.

Date/timePositionNaut miles runAvg speedWind from/ knotsBaromVisibWave heightAir tempDewpointWater temp
2017-Apr-09 12:36N 34°36' E 134°56'1 8.6
2017-Apr-09 12:29N 34°37' E 134°57'4 8.5
2017-Apr-09 12:00N 34°37' E 135°02'4 7.5
2017-Apr-09 11:30N 34°36' E 135°06'4 8.2
2017-Apr-09 11:01N 34°36' E 135°11'4 8.2
2017-Apr-09 10:30N 34°36' E 135°16'4 7.5
2017-Apr-09 10:00N 34°37' E 135°21'4 7.1
2017-Apr-09 09:30N 34°39' E 135°24'1 2.7
2017-Apr-09 08:58N 34°39' E 135°26'0 0.0
2017-Apr-09 08:28N 34°39' E 135°26'0 0.0
2017-Apr-09 07:56N 34°39' E 135°26'1 1.4
2017-Apr-09 07:30N 34°39' E 135°26'1 2.1
2017-Apr-09 07:00N 34°38' E 135°27'1 2.4
2017-Apr-09 06:30N 34°39' E 135°25'1 2.4
2017-Apr-09 05:59N 34°40' E 135°26'0 0.9
2017-Apr-09 05:28N 34°39' E 135°26'0 0.0
2017-Apr-09 04:40N 34°39' E 135°26'0 0.0
2017-Apr-09 04:28N 34°39' E 135°26'1 1.3
2017-Apr-09 04:00N 34°39' E 135°25'1 2.3
2017-Apr-09 03:30N 34°38' E 135°27'0 0.9
2017-Apr-09 03:00N 34°39' E 135°26'1 1.6
2017-Apr-09 02:30N 34°39' E 135°25'1 1.1
2017-Apr-09 02:00N 34°39' E 135°26'0 0.0
2017-Apr-09 01:12N 34°39' E 135°26'0 0.0
2017-Apr-09 00:48N 34°39' E 135°26'0 0.0
2017-Apr-09 00:30N 34°39' E 135°26'0 0.0
2017-Apr-08 22:12N 34°39' E 135°26'0 0.0
2017-Apr-08 21:54N 34°39' E 135°26'0 0.0
2017-Apr-08 21:30N 34°39' E 135°26'0 0.0
2017-Apr-08 21:00N 34°39' E 135°26'0 0.0
2017-Apr-08 20:24N 34°39' E 135°26'0 0.0
2017-Apr-08 20:00N 34°39' E 135°26'0 0.0
2017-Apr-08 19:24N 34°39' E 135°26'0 0.0
2017-Apr-08 19:00N 34°39' E 135°26'0 0.0
2017-Apr-08 17:12N 34°39' E 135°26'0 0.0
2017-Apr-08 16:54N 34°39' E 135°26'0 0.0
2017-Apr-08 15:42N 34°39' E 135°26'0 0.0
2017-Apr-08 15:30N 34°39' E 135°26'0 0.0
2017-Apr-08 12:48N 34°39' E 135°26'0 0.0
2017-Apr-08 12:24N 34°39' E 135°26'0 0.0
2017-Apr-08 12:00N 34°39' E 135°26'0 0.0
2017-Apr-08 11:12N 34°39' E 135°26'0 0.0
2017-Apr-08 11:00N 34°39' E 135°26'0 0.0
2017-Apr-08 10:00N 34°39' E 135°26'0 0.0
2017-Apr-08 09:30N 34°39' E 135°26'0 0.0
2017-Apr-08 08:54N 34°39' E 135°26'0 0.0
2017-Apr-08 08:30N 34°39' E 135°26'0 0.0
2017-Apr-08 08:00N 34°39' E 135°26'0 0.0
2017-Apr-08 06:30N 34°39' E 135°26'0 0.0
2017-Apr-08 06:00N 34°39' E 135°26'0 0.0
2017-Apr-08 05:30N 34°39' E 135°26'0 0.0
2017-Apr-08 04:54N 34°39' E 135°26'0 0.0
2017-Apr-08 04:18N 34°39' E 135°26'0 0.0
2017-Apr-08 03:18N 34°39' E 135°26'0 0.0
2017-Apr-08 02:54N 34°39' E 135°26'0 0.0
2017-Apr-08 01:42N 34°39' E 135°26'0 0.0
2017-Apr-08 01:24N 34°39' E 135°26'0 0.0
2017-Apr-08 01:00N 34°39' E 135°26'0 0.0
2017-Apr-08 00:30N 34°39' E 135°26'0 0.0
2017-Apr-07 23:06N 34°39' E 135°26'0 0.0
2017-Apr-07 23:00N 34°39' E 135°26'0 0.0
2017-Apr-07 22:30N 34°39' E 135°26'0 0.0
2017-Apr-07 21:36N 34°39' E 135°26'0 0.0
2017-Apr-07 21:24N 34°39' E 135°26'0 0.0
2017-Apr-07 16:24N 34°39' E 135°26'0 0.0
2017-Apr-07 16:00N 34°39' E 135°26'0 0.0
2017-Apr-07 15:24N 34°39' E 135°26'0 0.0
2017-Apr-07 15:00N 34°39' E 135°26'0 0.0
2017-Apr-07 14:00N 34°39' E 135°26'0 0.0
2017-Apr-07 13:24N 34°39' E 135°26'0 0.0
2017-Apr-07 12:54N 34°39' E 135°26'0 0.0
2017-Apr-07 12:30N 34°39' E 135°26'0 0.0
2017-Apr-07 11:24N 34°39' E 135°26'0 0.0
2017-Apr-07 11:00N 34°39' E 135°26'0 0.0
2017-Apr-07 09:48N 34°39' E 135°26'0 0.0
2017-Apr-07 09:30N 34°39' E 135°26'0 0.0
2017-Apr-07 09:00N 34°39' E 135°26'0 0.0
2017-Apr-07 08:27N 34°39' E 135°26'0 0.0
2017-Apr-07 07:57N 34°39' E 135°26'0 0.0
2017-Apr-07 07:27N 34°39' E 135°26'0 0.0
2017-Apr-07 06:57N 34°39' E 135°26'0 0.0
2017-Apr-07 06:27N 34°39' E 135°26'0 0.0
2017-Apr-07 05:57N 34°39' E 135°26'0 0.0
2017-Apr-07 05:27N 34°39' E 135°26'0 0.0
2017-Apr-07 04:57N 34°39' E 135°26'0 0.0
2017-Apr-07 04:21N 34°39' E 135°26'0 0.0
2017-Apr-07 03:57N 34°39' E 135°26'0 0.0
2017-Apr-07 03:30N 34°39' E 135°26'2 3.7
2017-Apr-07 03:00N 34°38' E 135°24'3 5.6
2017-Apr-07 02:29N 34°37' E 135°21'2 3.1
2017-Apr-07 02:00N 34°37' E 135°19'1 2.7
2017-Apr-07 01:30N 34°37' E 135°18'1 2.8
2017-Apr-07 01:00N 34°37' E 135°16'1 3.0
2017-Apr-07 00:30N 34°37' E 135°14'2 4.0
2017-Apr-07 00:00N 34°37' E 135°12'2 3.6
2017-Apr-06 23:30N 34°39' E 135°11'2 3.1
2017-Apr-06 22:58N 34°41' E 135°11'0 0.0
2017-Apr-06 22:28N 34°41' E 135°11'0 0.0
2017-Apr-06 21:58N 34°41' E 135°11'0 0.0
2017-Apr-06 21:28N 34°41' E 135°11'0 0.0
2017-Apr-06 20:58N 34°41' E 135°11'0 0.0
2017-Apr-06 20:28N 34°41' E 135°11'0 0.0
2017-Apr-06 19:58N 34°41' E 135°11'0 0.0
2017-Apr-06 19:28N 34°41' E 135°11'0 0.0
2017-Apr-06 18:58N 34°41' E 135°11'0 0.0
2017-Apr-06 18:28N 34°41' E 135°11'0 0.0
2017-Apr-06 17:58N 34°41' E 135°11'0 0.0
2017-Apr-06 17:22N 34°41' E 135°11'0 0.0
2017-Apr-06 16:58N 34°41' E 135°11'0 0.0
2017-Apr-06 16:28N 34°41' E 135°11'0 0.0
2017-Apr-06 15:58N 34°41' E 135°11'0 0.0
2017-Apr-06 15:28N 34°41' E 135°11'0 0.0
2017-Apr-06 14:52N 34°41' E 135°11'0 0.0
2017-Apr-06 13:58N 34°41' E 135°11'0 0.0
2017-Apr-06 13:28N 34°41' E 135°11'0 0.0
2017-Apr-06 12:40N 34°41' E 135°11'0 0.0
2017-Apr-06 12:28N 34°41' E 135°11'0 0.0
2017-Apr-06 11:58N 34°41' E 135°11'0 0.0
2017-Apr-06 11:28N 34°41' E 135°11'0 0.0
2017-Apr-06 10:58N 34°41' E 135°11'0 0.0
2017-Apr-06 10:22N 34°41' E 135°11'0 0.0
2017-Apr-06 09:58N 34°41' E 135°11'0 0.0
2017-Apr-06 09:28N 34°41' E 135°11'0 0.0
2017-Apr-06 08:58N 34°41' E 135°11'0 0.0
2017-Apr-06 08:22N 34°41' E 135°11'0 0.0
2017-Apr-06 07:58N 34°41' E 135°11'0 0.0
2017-Apr-06 07:28N 34°41' E 135°11'0 0.0
2017-Apr-06 06:46N 34°41' E 135°11'0 0.0
2017-Apr-06 06:28N 34°41' E 135°11'0 0.0
2017-Apr-06 05:52N 34°41' E 135°11'0 0.0
2017-Apr-06 05:16N 34°41' E 135°11'0 0.7
2017-Apr-06 05:00N 34°41' E 135°11'2 3.8
2017-Apr-06 04:30N 34°39' E 135°11'2 3.3
2017-Apr-06 04:00N 34°37' E 135°11'1 1.2
2017-Apr-06 03:29N 34°37' E 135°11'1 1.4
2017-Apr-06 03:00N 34°37' E 135°10'1 2.4
2017-Apr-06 02:30N 34°36' E 135°09'2 4.3
2017-Apr-06 01:58N 34°34' E 135°07'1 2.6
2017-Apr-06 01:30N 34°34' E 135°06'3 6.0
2017-Apr-06 00:59N 34°36' E 135°03'7 0.3
2017-Apr-05 05:42N 34°37' E 134°55'2 6.2
2017-Apr-05 05:25N 34°38' E 134°57'3 8.0
2017-Apr-05 04:59N 34°37' E 135°01'3 6.5
2017-Apr-05 04:30N 34°36' E 135°04'2 4.8
2017-Apr-05 04:00N 34°35' E 135°07'2 3.9
2017-Apr-05 03:28N 34°33' E 135°08'2 3.4
2017-Apr-05 02:59N 34°32' E 135°10'2 3.7
2017-Apr-05 02:30N 34°31' E 135°12'2 4.0
2017-Apr-05 01:59N 34°29' E 135°13'2 4.5
2017-Apr-05 01:29N 34°28' E 135°16'1 0.1
2017-Apr-04 21:03N 34°28' E 135°16'0 0.0
2017-Apr-04 20:39N 34°28' E 135°16'0 0.0
2017-Apr-04 20:27N 34°28' E 135°16'0 0.0
2017-Apr-04 19:51N 34°28' E 135°16'0 0.0
2017-Apr-04 19:27N 34°28' E 135°16'0 0.0
2017-Apr-04 18:45N 34°28' E 135°16'0 0.0
2017-Apr-04 18:15N 34°28' E 135°16'0 0.0
2017-Apr-04 17:51N 34°28' E 135°16'0 0.0
2017-Apr-04 17:27N 34°28' E 135°16'0 0.0
2017-Apr-04 16:57N 34°28' E 135°16'0 0.0
2017-Apr-04 09:15N 34°28' E 135°16'0 0.1
2017-Apr-04 08:52N 34°28' E 135°16'1 1.7
2017-Apr-04 08:30N 34°28' E 135°17'2 4.9
2017-Apr-04 08:00N 34°30' E 135°18'3 6.8
2017-Apr-04 07:30N 34°34' E 135°19'3 6.6
2017-Apr-04 07:00N 34°37' E 135°21'3 6.2
2017-Apr-04 06:30N 34°38' E 135°24'2 3.4
2017-Apr-04 06:00N 34°39' E 135°26'0 0.0
2017-Apr-04 05:24N 34°39' E 135°26'0 0.0
2017-Apr-04 05:00N 34°39' E 135°26'0 0.0
2017-Apr-04 04:30N 34°39' E 135°26'0 0.0
2017-Apr-04 03:48N 34°39' E 135°26'0 0.0
2017-Apr-04 03:30N 34°39' E 135°26'0 0.0
2017-Apr-04 02:54N 34°39' E 135°26'0 0.0
2017-Apr-04 02:30N 34°39' E 135°26'0 0.0
2017-Apr-04 01:54N 34°39' E 135°26'0 0.0
2017-Apr-04 01:30N 34°39' E 135°26'0 0.0
2017-Apr-04 00:54N 34°39' E 135°26'0 0.0
2017-Apr-04 00:24N 34°39' E 135°26'0 0.0
2017-Apr-04 00:00N 34°39' E 135°26'0 0.0
2017-Apr-03 23:12N 34°39' E 135°26'0 0.0
2017-Apr-03 22:54N 34°39' E 135°26'0 0.0
2017-Apr-03 22:24N 34°39' E 135°26'0 0.0
2017-Apr-03 22:00N 34°39' E 135°26'0 0.0
2017-Apr-03 21:18N 34°39' E 135°26'0 0.0
2017-Apr-03 20:54N 34°39' E 135°26'0 0.0
2017-Apr-03 20:30N 34°39' E 135°26'0 0.0
2017-Apr-03 20:00N 34°39' E 135°26'0 0.0
2017-Apr-03 18:24N 34°39' E 135°26'0 0.0
2017-Apr-03 17:54N 34°39' E 135°26'0 0.0
2017-Apr-03 17:30N 34°39' E 135°26'0 0.0
2017-Apr-03 16:30N 34°39' E 135°26'0 0.0
2017-Apr-03 16:00N 34°39' E 135°26'0 0.0
2017-Apr-03 15:30N 34°39' E 135°26'0 0.0
2017-Apr-03 15:00N 34°39' E 135°26'0 0.0
2017-Apr-03 14:00N 34°39' E 135°26'0 0.0
2017-Apr-03 13:18N 34°39' E 135°26'0 0.0
2017-Apr-03 12:54N 34°39' E 135°26'0 0.0
2017-Apr-03 12:24N 34°39' E 135°26'0 0.0
2017-Apr-03 12:00N 34°39' E 135°26'0 0.0
2017-Apr-03 11:30N 34°39' E 135°26'0 0.0
2017-Apr-03 11:00N 34°39' E 135°26'0 0.0
2017-Apr-03 10:30N 34°39' E 135°26'0 0.0
2017-Apr-03 09:48N 34°39' E 135°26'0 0.0
2017-Apr-03 09:24N 34°39' E 135°26'0 0.0
2017-Apr-03 08:54N 34°39' E 135°26'0 0.0
2017-Apr-03 08:30N 34°39' E 135°26'0 0.0
2017-Apr-03 07:54N 34°39' E 135°26'0 0.0
2017-Apr-03 07:24N 34°39' E 135°26'0 0.0
2017-Apr-03 05:06N 34°39' E 135°26'0 0.0
2017-Apr-03 04:36N 34°39' E 135°26'0 0.0
2017-Apr-03 04:30N 34°39' E 135°26'0 0.0
2017-Apr-03 04:00N 34°39' E 135°26'0 0.0
2017-Apr-03 03:30N 34°39' E 135°26'0 0.0
2017-Apr-03 03:00N 34°39' E 135°26'0 0.0
2017-Apr-03 02:30N 34°39' E 135°26'0 0.0
2017-Apr-03 01:06N 34°39' E 135°26'0 0.0
2017-Apr-03 01:00N 34°39' E 135°26'0 0.0
2017-Apr-03 00:18N 34°39' E 135°26'0 0.0
2017-Apr-03 00:00N 34°39' E 135°26'0 0.0
2017-Apr-02 23:24N 34°39' E 135°26'0 0.0
2017-Apr-02 23:00N 34°39' E 135°26'0 0.0
2017-Apr-02 22:12N 34°39' E 135°26'0 0.0
2017-Apr-02 22:00N 34°39' E 135°26'0 0.0
2017-Apr-02 21:30N 34°39' E 135°26'0 0.0
2017-Apr-02 21:00N 34°39' E 135°26'0 0.0
2017-Apr-02 20:30N 34°39' E 135°26'0 0.0
2017-Apr-02 20:00N 34°39' E 135°26'0 0.0
2017-Apr-02 19:30N 34°39' E 135°26'0 0.0
2017-Apr-02 19:00N 34°39' E 135°26'0 0.0
2017-Apr-02 18:18N 34°39' E 135°26'0 0.0
2017-Apr-02 18:00N 34°39' E 135°26'0 0.0
2017-Apr-02 17:30N 34°39' E 135°26'0 0.0
2017-Apr-02 16:42N 34°39' E 135°26'0 0.0
2017-Apr-02 16:12N 34°39' E 135°26'0 0.0
2017-Apr-02 15:54N 34°39' E 135°26'0 0.0
2017-Apr-02 15:24N 34°39' E 135°26'0 0.0
2017-Apr-02 15:00N 34°39' E 135°26'0 0.0
2017-Apr-02 14:30N 34°39' E 135°26'0 0.0
2017-Apr-02 13:30N 34°39' E 135°26'0 0.0
2017-Apr-02 12:30N 34°39' E 135°26'0 0.0
2017-Apr-02 12:00N 34°39' E 135°26'0 0.0
2017-Apr-02 11:30N 34°39' E 135°26'0 0.0
2017-Apr-02 11:00N 34°39' E 135°26'0 0.0
2017-Apr-02 10:18N 34°39' E 135°26'0 0.0
2017-Apr-02 10:00N 34°39' E 135°26'0 0.0
2017-Apr-02 08:48N 34°39' E 135°26'0 0.0
2017-Apr-02 08:30N 34°39' E 135°26'0 0.0
2017-Apr-02 07:54N 34°39' E 135°26'0 0.0
2017-Apr-02 07:30N 34°39' E 135°26'0 0.0
2017-Apr-02 07:00N 34°39' E 135°26'0 0.1
2017-Apr-02 06:30N 34°39' E 135°26'2 4.8
2017-Apr-02 06:00N 34°38' E 135°23'2 4.4
2017-Apr-02 05:30N 34°36' E 135°22'2 4.3
2017-Apr-02 05:00N 34°35' E 135°20'2 3.6
2017-Apr-02 04:30N 34°34' E 135°18'2 3.1
2017-Apr-02 04:00N 34°35' E 135°16'2 3.6
2017-Apr-02 03:30N 34°35' E 135°14'2 4.2
2017-Apr-02 03:00N 34°35' E 135°11'2 3.6
2017-Apr-02 02:30N 34°37' E 135°11'2 4.1
2017-Apr-02 02:00N 34°39' E 135°11'2 4.7
2017-Apr-02 01:30N 34°41' E 135°11'0 0.1
2017-Apr-02 00:59N 34°41' E 135°11'0 0.0
2017-Apr-02 00:29N 34°41' E 135°11'0 0.0
2017-Apr-02 00:00N 34°41' E 135°11'0 0.0
2017-Apr-01 23:30N 34°41' E 135°11'0 0.0
2017-Apr-01 23:00N 34°41' E 135°11'0 0.0
2017-Apr-01 22:30N 34°41' E 135°11'0 0.0
2017-Apr-01 21:54N 34°41' E 135°11'0 0.0
2017-Apr-01 21:30N 34°41' E 135°11'0 0.0
2017-Apr-01 20:48N 34°41' E 135°11'0 0.0
2017-Apr-01 20:24N 34°41' E 135°11'0 0.0
2017-Apr-01 20:00N 34°41' E 135°11'0 0.0
2017-Apr-01 19:30N 34°41' E 135°11'0 0.0
2017-Apr-01 19:00N 34°41' E 135°11'0 0.0
2017-Apr-01 18:30N 34°41' E 135°11'0 0.0
2017-Apr-01 17:30N 34°41' E 135°11'0 0.0
2017-Apr-01 16:48N 34°41' E 135°11'0 0.0
2017-Apr-01 16:24N 34°41' E 135°11'0 0.0
2017-Apr-01 15:48N 34°41' E 135°11'0 0.0
2017-Apr-01 15:00N 34°41' E 135°11'0 0.0
2017-Apr-01 14:00N 34°41' E 135°11'0 0.0
2017-Apr-01 13:30N 34°41' E 135°11'0 0.0
2017-Apr-01 13:00N 34°41' E 135°11'0 0.0
2017-Apr-01 12:30N 34°41' E 135°11'0 0.0
2017-Apr-01 11:54N 34°41' E 135°11'0 0.0
2017-Apr-01 11:30N 34°41' E 135°11'0 0.0
2017-Apr-01 11:00N 34°41' E 135°11'0 0.0
2017-Apr-01 10:30N 34°41' E 135°11'0 0.0
2017-Apr-01 09:54N 34°41' E 135°11'0 0.0
2017-Apr-01 09:12N 34°41' E 135°11'0 0.0
2017-Apr-01 08:54N 34°41' E 135°11'0 0.0
2017-Apr-01 08:24N 34°41' E 135°11'0 0.0
2017-Apr-01 07:48N 34°41' E 135°11'0 0.0
2017-Apr-01 07:30N 34°41' E 135°11'0 0.0
2017-Apr-01 07:00N 34°41' E 135°11'0 0.2
2017-Apr-01 06:30N 34°41' E 135°11'2 4.5
2017-Apr-01 06:00N 34°39' E 135°11'2 4.1
2017-Apr-01 05:30N 34°37' E 135°10'1 1.4
2017-Apr-01 05:00N 34°37' E 135°09'0 0.5
2017-Apr-01 04:30N 34°37' E 135°08'0 0.8
2017-Apr-01 04:00N 34°37' E 135°08'0 0.7
2017-Apr-01 03:30N 34°37' E 135°08'0 0.6
2017-Apr-01 02:59N 34°37' E 135°07'0 0.9
2017-Apr-01 02:30N 34°37' E 135°08'1 2.5
2017-Apr-01 02:00N 34°38' E 135°09'2 3.5
2017-Apr-01 01:30N 34°39' E 135°11'2 3.3
2017-Apr-01 01:00N 34°40' E 135°11'1 0.9
2017-Apr-01 00:10N 34°41' E 135°11'0 0.0
2017-Mar-31 23:58N 34°41' E 135°11'0 0.0
2017-Mar-31 23:20N 34°41' E 135°11'0 0.0
2017-Mar-31 22:56N 34°41' E 135°11'0 0.0
2017-Mar-31 22:26N 34°41' E 135°11'0 0.0
2017-Mar-31 21:56N 34°41' E 135°11'0 0.0
2017-Mar-31 21:26N 34°41' E 135°11'0 0.0
2017-Mar-31 20:56N 34°41' E 135°11'0 0.0
2017-Mar-31 20:26N 34°41' E 135°11'0 0.0
2017-Mar-31 19:56N 34°41' E 135°11'0 0.0
2017-Mar-31 19:26N 34°41' E 135°11'0 0.0
2017-Mar-31 18:56N 34°41' E 135°11'0 0.0
2017-Mar-31 18:26N 34°41' E 135°11'0 0.0
2017-Mar-31 17:56N 34°41' E 135°11'0 0.0
2017-Mar-31 17:26N 34°41' E 135°11'0 0.0
2017-Mar-31 16:50N 34°41' E 135°11'0 0.0
2017-Mar-31 16:26N 34°41' E 135°11'0 0.0
2017-Mar-31 15:50N 34°41' E 135°11'0 0.0
2017-Mar-31 15:14N 34°41' E 135°11'0 0.0
2017-Mar-31 14:56N 34°41' E 135°11'0 0.0
2017-Mar-31 14:26N 34°41' E 135°11'0 0.0
2017-Mar-31 13:26N 34°41' E 135°11'0 0.0
2017-Mar-31 12:56N 34°41' E 135°11'0 0.0
2017-Mar-31 12:26N 34°41' E 135°11'0 0.0
2017-Mar-31 11:56N 34°41' E 135°11'0 0.0
2017-Mar-31 11:26N 34°41' E 135°11'0 0.0
2017-Mar-31 10:56N 34°41' E 135°11'0 0.0
2017-Mar-31 10:20N 34°41' E 135°11'0 0.0
2017-Mar-31 09:56N 34°41' E 135°11'0 0.0
2017-Mar-31 09:26N 34°41' E 135°11'0 0.0
2017-Mar-31 08:56N 34°41' E 135°11'0 0.0
2017-Mar-31 08:26N 34°41' E 135°11'0 0.0
2017-Mar-31 07:56N 34°41' E 135°11'0 0.0
2017-Mar-31 07:26N 34°41' E 135°11'0 0.0
2017-Mar-31 06:56N 34°41' E 135°11'0 0.0
2017-Mar-31 06:26N 34°41' E 135°11'0 0.0
2017-Mar-31 05:50N 34°41' E 135°11'0 0.0
2017-Mar-31 05:20N 34°41' E 135°11'0 0.0
2017-Mar-31 04:56N 34°41' E 135°11'0 0.0
2017-Mar-31 04:26N 34°41' E 135°11'0 0.0
2017-Mar-31 03:26N 34°41' E 135°11'0 0.0
2017-Mar-31 02:20N 34°41' E 135°11'0 0.0
2017-Mar-31 01:32N 34°41' E 135°11'0 0.0
2017-Mar-31 00:32N 34°41' E 135°11'0 0.0
2017-Mar-30 23:32N 34°41' E 135°11'0 0.0
2017-Mar-30 22:26N 34°41' E 135°11'0 0.0
2017-Mar-30 21:20N 34°41' E 135°11'0 0.0
2017-Mar-30 20:32N 34°41' E 135°11'0 0.0
2017-Mar-30 19:32N 34°41' E 135°11'0 0.0
2017-Mar-30 18:32N 34°41' E 135°11'0 0.0
2017-Mar-30 17:32N 34°41' E 135°11'0 0.0
2017-Mar-30 16:32N 34°41' E 135°11'0 0.0
2017-Mar-30 15:20N 34°41' E 135°11'0 0.0
2017-Mar-30 14:32N 34°41' E 135°11'0 0.0
2017-Mar-30 13:32N 34°41' E 135°11'  
Track history (hours):
 
Tides and Currents Weather Stations Pressure Air Temp Water Temp Dewpoint Dewpoint Depression Visibility Wind Speed Wind Dir Waves Ship Positions

Akogare (Japan)

Ship's website: http://www.akogare.or.jp/eng/top.html

Last reported at 2017-Apr-09 12:36 UTC. Time now 2017-Apr-29 03:38 UTC.
Position N 34°36' E 134°56'.
Warning: this ship's position is 19 days out of date.

Length 52 m; draft 5.5 m.

Type: Sailing vessel. MMSI: 431005001.

Date/timePositionNaut miles runAvg speedWind from/ knotsBaromVisibWave heightAir tempDewpointWater temp
2017-Apr-09 12:36N 34°36' E 134°56'1 8.6
2017-Apr-09 12:29N 34°37' E 134°57'4 8.5
2017-Apr-09 12:00N 34°37' E 135°02'4 7.5
2017-Apr-09 11:30N 34°36' E 135°06'4 8.2
2017-Apr-09 11:01N 34°36' E 135°11'4 8.2
2017-Apr-09 10:30N 34°36' E 135°16'4 7.5
2017-Apr-09 10:00N 34°37' E 135°21'4 7.1
2017-Apr-09 09:30N 34°39' E 135°24'1 2.7
2017-Apr-09 08:58N 34°39' E 135°26'0 0.0
2017-Apr-09 08:28N 34°39' E 135°26'0 0.0
2017-Apr-09 07:56N 34°39' E 135°26'1 1.4
2017-Apr-09 07:30N 34°39' E 135°26'1 2.1
2017-Apr-09 07:00N 34°38' E 135°27'1 2.4
2017-Apr-09 06:30N 34°39' E 135°25'1 2.4
2017-Apr-09 05:59N 34°40' E 135°26'0 0.9
2017-Apr-09 05:28N 34°39' E 135°26'0 0.0
2017-Apr-09 04:40N 34°39' E 135°26'0 0.0
2017-Apr-09 04:28N 34°39' E 135°26'1 1.3
2017-Apr-09 04:00N 34°39' E 135°25'1 2.3
2017-Apr-09 03:30N 34°38' E 135°27'0 0.9
2017-Apr-09 03:00N 34°39' E 135°26'1 1.6
2017-Apr-09 02:30N 34°39' E 135°25'1 1.1
2017-Apr-09 02:00N 34°39' E 135°26'0 0.0
2017-Apr-09 01:12N 34°39' E 135°26'0 0.0
2017-Apr-09 00:48N 34°39' E 135°26'0 0.0
2017-Apr-09 00:30N 34°39' E 135°26'0 0.0
2017-Apr-08 22:12N 34°39' E 135°26'0 0.0
2017-Apr-08 21:54N 34°39' E 135°26'0 0.0
2017-Apr-08 21:30N 34°39' E 135°26'0 0.0
2017-Apr-08 21:00N 34°39' E 135°26'0 0.0
2017-Apr-08 20:24N 34°39' E 135°26'0 0.0
2017-Apr-08 20:00N 34°39' E 135°26'0 0.0
2017-Apr-08 19:24N 34°39' E 135°26'0 0.0
2017-Apr-08 19:00N 34°39' E 135°26'0 0.0
2017-Apr-08 17:12N 34°39' E 135°26'0 0.0
2017-Apr-08 16:54N 34°39' E 135°26'0 0.0
2017-Apr-08 15:42N 34°39' E 135°26'0 0.0
2017-Apr-08 15:30N 34°39' E 135°26'0 0.0
2017-Apr-08 12:48N 34°39' E 135°26'0 0.0
2017-Apr-08 12:24N 34°39' E 135°26'0 0.0
2017-Apr-08 12:00N 34°39' E 135°26'0 0.0
2017-Apr-08 11:12N 34°39' E 135°26'0 0.0
2017-Apr-08 11:00N 34°39' E 135°26'0 0.0
2017-Apr-08 10:00N 34°39' E 135°26'0 0.0
2017-Apr-08 09:30N 34°39' E 135°26'0 0.0
2017-Apr-08 08:54N 34°39' E 135°26'0 0.0
2017-Apr-08 08:30N 34°39' E 135°26'0 0.0
2017-Apr-08 08:00N 34°39' E 135°26'0 0.0
2017-Apr-08 06:30N 34°39' E 135°26'0 0.0
2017-Apr-08 06:00N 34°39' E 135°26'0 0.0
2017-Apr-08 05:30N 34°39' E 135°26'0 0.0
2017-Apr-08 04:54N 34°39' E 135°26'0 0.0
2017-Apr-08 04:18N 34°39' E 135°26'0 0.0
2017-Apr-08 03:18N 34°39' E 135°26'0 0.0
2017-Apr-08 02:54N 34°39' E 135°26'0 0.0
2017-Apr-08 01:42N 34°39' E 135°26'0 0.0
2017-Apr-08 01:24N 34°39' E 135°26'0 0.0
2017-Apr-08 01:00N 34°39' E 135°26'0 0.0
2017-Apr-08 00:30N 34°39' E 135°26'0 0.0
2017-Apr-07 23:06N 34°39' E 135°26'0 0.0
2017-Apr-07 23:00N 34°39' E 135°26'0 0.0
2017-Apr-07 22:30N 34°39' E 135°26'0 0.0
2017-Apr-07 21:36N 34°39' E 135°26'0 0.0
2017-Apr-07 21:24N 34°39' E 135°26'0 0.0
2017-Apr-07 16:24N 34°39' E 135°26'0 0.0
2017-Apr-07 16:00N 34°39' E 135°26'0 0.0
2017-Apr-07 15:24N 34°39' E 135°26'0 0.0
2017-Apr-07 15:00N 34°39' E 135°26'0 0.0
2017-Apr-07 14:00N 34°39' E 135°26'0 0.0
2017-Apr-07 13:24N 34°39' E 135°26'0 0.0
2017-Apr-07 12:54N 34°39' E 135°26'0 0.0
2017-Apr-07 12:30N 34°39' E 135°26'0 0.0
2017-Apr-07 11:24N 34°39' E 135°26'0 0.0
2017-Apr-07 11:00N 34°39' E 135°26'0 0.0
2017-Apr-07 09:48N 34°39' E 135°26'0 0.0
2017-Apr-07 09:30N 34°39' E 135°26'0 0.0
2017-Apr-07 09:00N 34°39' E 135°26'0 0.0
2017-Apr-07 08:27N 34°39' E 135°26'0 0.0
2017-Apr-07 07:57N 34°39' E 135°26'0 0.0
2017-Apr-07 07:27N 34°39' E 135°26'0 0.0
2017-Apr-07 06:57N 34°39' E 135°26'0 0.0
2017-Apr-07 06:27N 34°39' E 135°26'0 0.0
2017-Apr-07 05:57N 34°39' E 135°26'0 0.0
2017-Apr-07 05:27N 34°39' E 135°26'0 0.0
2017-Apr-07 04:57N 34°39' E 135°26'0 0.0
2017-Apr-07 04:21N 34°39' E 135°26'0 0.0
2017-Apr-07 03:57N 34°39' E 135°26'0 0.0
2017-Apr-07 03:30N 34°39' E 135°26'2 3.7
2017-Apr-07 03:00N 34°38' E 135°24'3 5.6
2017-Apr-07 02:29N 34°37' E 135°21'2 3.1
2017-Apr-07 02:00N 34°37' E 135°19'1 2.7
2017-Apr-07 01:30N 34°37' E 135°18'1 2.8
2017-Apr-07 01:00N 34°37' E 135°16'1 3.0
2017-Apr-07 00:30N 34°37' E 135°14'2 4.0
2017-Apr-07 00:00N 34°37' E 135°12'2 3.6
2017-Apr-06 23:30N 34°39' E 135°11'2 3.1
2017-Apr-06 22:58N 34°41' E 135°11'0 0.0
2017-Apr-06 22:28N 34°41' E 135°11'0 0.0
2017-Apr-06 21:58N 34°41' E 135°11'0 0.0
2017-Apr-06 21:28N 34°41' E 135°11'0 0.0
2017-Apr-06 20:58N 34°41' E 135°11'0 0.0
2017-Apr-06 20:28N 34°41' E 135°11'0 0.0
2017-Apr-06 19:58N 34°41' E 135°11'0 0.0
2017-Apr-06 19:28N 34°41' E 135°11'0 0.0
2017-Apr-06 18:58N 34°41' E 135°11'0 0.0
2017-Apr-06 18:28N 34°41' E 135°11'0 0.0
2017-Apr-06 17:58N 34°41' E 135°11'0 0.0
2017-Apr-06 17:22N 34°41' E 135°11'0 0.0
2017-Apr-06 16:58N 34°41' E 135°11'0 0.0
2017-Apr-06 16:28N 34°41' E 135°11'0 0.0
2017-Apr-06 15:58N 34°41' E 135°11'0 0.0
2017-Apr-06 15:28N 34°41' E 135°11'0 0.0
2017-Apr-06 14:52N 34°41' E 135°11'0 0.0
2017-Apr-06 13:58N 34°41' E 135°11'0 0.0
2017-Apr-06 13:28N 34°41' E 135°11'0 0.0
2017-Apr-06 12:40N 34°41' E 135°11'0 0.0
2017-Apr-06 12:28N 34°41' E 135°11'0 0.0
2017-Apr-06 11:58N 34°41' E 135°11'0 0.0
2017-Apr-06 11:28N 34°41' E 135°11'0 0.0
2017-Apr-06 10:58N 34°41' E 135°11'0 0.0
2017-Apr-06 10:22N 34°41' E 135°11'0 0.0
2017-Apr-06 09:58N 34°41' E 135°11'0 0.0
2017-Apr-06 09:28N 34°41' E 135°11'0 0.0
2017-Apr-06 08:58N 34°41' E 135°11'0 0.0
2017-Apr-06 08:22N 34°41' E 135°11'0 0.0
2017-Apr-06 07:58N 34°41' E 135°11'0 0.0
2017-Apr-06 07:28N 34°41' E 135°11'0 0.0
2017-Apr-06 06:46N 34°41' E 135°11'0 0.0
2017-Apr-06 06:28N 34°41' E 135°11'0 0.0
2017-Apr-06 05:52N 34°41' E 135°11'0 0.0
2017-Apr-06 05:16N 34°41' E 135°11'0 0.7
2017-Apr-06 05:00N 34°41' E 135°11'2 3.8
2017-Apr-06 04:30N 34°39' E 135°11'2 3.3
2017-Apr-06 04:00N 34°37' E 135°11'1 1.2
2017-Apr-06 03:29N 34°37' E 135°11'1 1.4
2017-Apr-06 03:00N 34°37' E 135°10'1 2.4
2017-Apr-06 02:30N 34°36' E 135°09'2 4.3
2017-Apr-06 01:58N 34°34' E 135°07'1 2.6
2017-Apr-06 01:30N 34°34' E 135°06'3 6.0
2017-Apr-06 00:59N 34°36' E 135°03'7 0.3
2017-Apr-05 05:42N 34°37' E 134°55'2 6.2
2017-Apr-05 05:25N 34°38' E 134°57'3 8.0
2017-Apr-05 04:59N 34°37' E 135°01'3 6.5
2017-Apr-05 04:30N 34°36' E 135°04'2 4.8
2017-Apr-05 04:00N 34°35' E 135°07'2 3.9
2017-Apr-05 03:28N 34°33' E 135°08'2 3.4
2017-Apr-05 02:59N 34°32' E 135°10'2 3.7
2017-Apr-05 02:30N 34°31' E 135°12'2 4.0
2017-Apr-05 01:59N 34°29' E 135°13'2 4.5
2017-Apr-05 01:29N 34°28' E 135°16'1 0.1
2017-Apr-04 21:03N 34°28' E 135°16'0 0.0
2017-Apr-04 20:39N 34°28' E 135°16'0 0.0
2017-Apr-04 20:27N 34°28' E 135°16'0 0.0
2017-Apr-04 19:51N 34°28' E 135°16'0 0.0
2017-Apr-04 19:27N 34°28' E 135°16'0 0.0
2017-Apr-04 18:45N 34°28' E 135°16'0 0.0
2017-Apr-04 18:15N 34°28' E 135°16'0 0.0
2017-Apr-04 17:51N 34°28' E 135°16'0 0.0
2017-Apr-04 17:27N 34°28' E 135°16'0 0.0
2017-Apr-04 16:57N 34°28' E 135°16'0 0.0
2017-Apr-04 09:15N 34°28' E 135°16'0 0.1
2017-Apr-04 08:52N 34°28' E 135°16'1 1.7
2017-Apr-04 08:30N 34°28' E 135°17'2 4.9
2017-Apr-04 08:00N 34°30' E 135°18'3 6.8
2017-Apr-04 07:30N 34°34' E 135°19'3 6.6
2017-Apr-04 07:00N 34°37' E 135°21'3 6.2
2017-Apr-04 06:30N 34°38' E 135°24'2 3.4
2017-Apr-04 06:00N 34°39' E 135°26'0 0.0
2017-Apr-04 05:24N 34°39' E 135°26'0 0.0
2017-Apr-04 05:00N 34°39' E 135°26'0 0.0
2017-Apr-04 04:30N 34°39' E 135°26'0 0.0
2017-Apr-04 03:48N 34°39' E 135°26'0 0.0
2017-Apr-04 03:30N 34°39' E 135°26'0 0.0
2017-Apr-04 02:54N 34°39' E 135°26'0 0.0
2017-Apr-04 02:30N 34°39' E 135°26'0 0.0
2017-Apr-04 01:54N 34°39' E 135°26'0 0.0
2017-Apr-04 01:30N 34°39' E 135°26'0 0.0
2017-Apr-04 00:54N 34°39' E 135°26'0 0.0
2017-Apr-04 00:24N 34°39' E 135°26'0 0.0
2017-Apr-04 00:00N 34°39' E 135°26'0 0.0
2017-Apr-03 23:12N 34°39' E 135°26'0 0.0
2017-Apr-03 22:54N 34°39' E 135°26'0 0.0
2017-Apr-03 22:24N 34°39' E 135°26'0 0.0
2017-Apr-03 22:00N 34°39' E 135°26'0 0.0
2017-Apr-03 21:18N 34°39' E 135°26'0 0.0
2017-Apr-03 20:54N 34°39' E 135°26'0 0.0
2017-Apr-03 20:30N 34°39' E 135°26'0 0.0
2017-Apr-03 20:00N 34°39' E 135°26'0 0.0
2017-Apr-03 18:24N 34°39' E 135°26'0 0.0
2017-Apr-03 17:54N 34°39' E 135°26'0 0.0
2017-Apr-03 17:30N 34°39' E 135°26'0 0.0
2017-Apr-03 16:30N 34°39' E 135°26'0 0.0
2017-Apr-03 16:00N 34°39' E 135°26'0 0.0
2017-Apr-03 15:30N 34°39' E 135°26'0 0.0
2017-Apr-03 15:00N 34°39' E 135°26'0 0.0
2017-Apr-03 14:00N 34°39' E 135°26'0 0.0
2017-Apr-03 13:18N 34°39' E 135°26'0 0.0
2017-Apr-03 12:54N 34°39' E 135°26'0 0.0
2017-Apr-03 12:24N 34°39' E 135°26'0 0.0
2017-Apr-03 12:00N 34°39' E 135°26'0 0.0
2017-Apr-03 11:30N 34°39' E 135°26'0 0.0
2017-Apr-03 11:00N 34°39' E 135°26'0 0.0
2017-Apr-03 10:30N 34°39' E 135°26'0 0.0
2017-Apr-03 09:48N 34°39' E 135°26'0 0.0
2017-Apr-03 09:24N 34°39' E 135°26'0 0.0
2017-Apr-03 08:54N 34°39' E 135°26'0 0.0
2017-Apr-03 08:30N 34°39' E 135°26'0 0.0
2017-Apr-03 07:54N 34°39' E 135°26'0 0.0
2017-Apr-03 07:24N 34°39' E 135°26'0 0.0
2017-Apr-03 05:06N 34°39' E 135°26'0 0.0
2017-Apr-03 04:36N 34°39' E 135°26'0 0.0
2017-Apr-03 04:30N 34°39' E 135°26'0 0.0
2017-Apr-03 04:00N 34°39' E 135°26'0 0.0
2017-Apr-03 03:30N 34°39' E 135°26'0 0.0
2017-Apr-03 03:00N 34°39' E 135°26'0 0.0
2017-Apr-03 02:30N 34°39' E 135°26'0 0.0
2017-Apr-03 01:06N 34°39' E 135°26'0 0.0
2017-Apr-03 01:00N 34°39' E 135°26'0 0.0
2017-Apr-03 00:18N 34°39' E 135°26'0 0.0
2017-Apr-03 00:00N 34°39' E 135°26'0 0.0
2017-Apr-02 23:24N 34°39' E 135°26'0 0.0
2017-Apr-02 23:00N 34°39' E 135°26'0 0.0
2017-Apr-02 22:12N 34°39' E 135°26'0 0.0
2017-Apr-02 22:00N 34°39' E 135°26'0 0.0
2017-Apr-02 21:30N 34°39' E 135°26'0 0.0
2017-Apr-02 21:00N 34°39' E 135°26'0 0.0
2017-Apr-02 20:30N 34°39' E 135°26'0 0.0
2017-Apr-02 20:00N 34°39' E 135°26'0 0.0
2017-Apr-02 19:30N 34°39' E 135°26'0 0.0
2017-Apr-02 19:00N 34°39' E 135°26'0 0.0
2017-Apr-02 18:18N 34°39' E 135°26'0 0.0
2017-Apr-02 18:00N 34°39' E 135°26'0 0.0
2017-Apr-02 17:30N 34°39' E 135°26'0 0.0
2017-Apr-02 16:42N 34°39' E 135°26'0 0.0
2017-Apr-02 16:12N 34°39' E 135°26'0 0.0
2017-Apr-02 15:54N 34°39' E 135°26'0 0.0
2017-Apr-02 15:24N 34°39' E 135°26'0 0.0
2017-Apr-02 15:00N 34°39' E 135°26'0 0.0
2017-Apr-02 14:30N 34°39' E 135°26'0 0.0
2017-Apr-02 13:30N 34°39' E 135°26'0 0.0
2017-Apr-02 12:30N 34°39' E 135°26'0 0.0
2017-Apr-02 12:00N 34°39' E 135°26'0 0.0
2017-Apr-02 11:30N 34°39' E 135°26'0 0.0
2017-Apr-02 11:00N 34°39' E 135°26'0 0.0
2017-Apr-02 10:18N 34°39' E 135°26'0 0.0
2017-Apr-02 10:00N 34°39' E 135°26'0 0.0
2017-Apr-02 08:48N 34°39' E 135°26'0 0.0
2017-Apr-02 08:30N 34°39' E 135°26'0 0.0
2017-Apr-02 07:54N 34°39' E 135°26'0 0.0
2017-Apr-02 07:30N 34°39' E 135°26'0 0.0
2017-Apr-02 07:00N 34°39' E 135°26'0 0.1
2017-Apr-02 06:30N 34°39' E 135°26'2 4.8
2017-Apr-02 06:00N 34°38' E 135°23'2 4.4
2017-Apr-02 05:30N 34°36' E 135°22'2 4.3
2017-Apr-02 05:00N 34°35' E 135°20'2 3.6
2017-Apr-02 04:30N 34°34' E 135°18'2 3.1
2017-Apr-02 04:00N 34°35' E 135°16'2 3.6
2017-Apr-02 03:30N 34°35' E 135°14'2 4.2
2017-Apr-02 03:00N 34°35' E 135°11'2 3.6
2017-Apr-02 02:30N 34°37' E 135°11'2 4.1
2017-Apr-02 02:00N 34°39' E 135°11'2 4.7
2017-Apr-02 01:30N 34°41' E 135°11'0 0.1
2017-Apr-02 00:59N 34°41' E 135°11'0 0.0
2017-Apr-02 00:29N 34°41' E 135°11'0 0.0
2017-Apr-02 00:00N 34°41' E 135°11'0 0.0
2017-Apr-01 23:30N 34°41' E 135°11'0 0.0
2017-Apr-01 23:00N 34°41' E 135°11'0 0.0
2017-Apr-01 22:30N 34°41' E 135°11'0 0.0
2017-Apr-01 21:54N 34°41' E 135°11'0 0.0
2017-Apr-01 21:30N 34°41' E 135°11'0 0.0
2017-Apr-01 20:48N 34°41' E 135°11'0 0.0
2017-Apr-01 20:24N 34°41' E 135°11'0 0.0
2017-Apr-01 20:00N 34°41' E 135°11'0 0.0
2017-Apr-01 19:30N 34°41' E 135°11'0 0.0
2017-Apr-01 19:00N 34°41' E 135°11'0 0.0
2017-Apr-01 18:30N 34°41' E 135°11'0 0.0
2017-Apr-01 17:30N 34°41' E 135°11'0 0.0
2017-Apr-01 16:48N 34°41' E 135°11'0 0.0
2017-Apr-01 16:24N 34°41' E 135°11'0 0.0
2017-Apr-01 15:48N 34°41' E 135°11'0 0.0
2017-Apr-01 15:00N 34°41' E 135°11'0 0.0
2017-Apr-01 14:00N 34°41' E 135°11'0 0.0
2017-Apr-01 13:30N 34°41' E 135°11'0 0.0
2017-Apr-01 13:00N 34°41' E 135°11'0 0.0
2017-Apr-01 12:30N 34°41' E 135°11'0 0.0
2017-Apr-01 11:54N 34°41' E 135°11'0 0.0
2017-Apr-01 11:30N 34°41' E 135°11'0 0.0
2017-Apr-01 11:00N 34°41' E 135°11'0 0.0
2017-Apr-01 10:30N 34°41' E 135°11'0 0.0
2017-Apr-01 09:54N 34°41' E 135°11'0 0.0
2017-Apr-01 09:12N 34°41' E 135°11'0 0.0
2017-Apr-01 08:54N 34°41' E 135°11'0 0.0
2017-Apr-01 08:24N 34°41' E 135°11'0 0.0
2017-Apr-01 07:48N 34°41' E 135°11'0 0.0
2017-Apr-01 07:30N 34°41' E 135°11'0 0.0
2017-Apr-01 07:00N 34°41' E 135°11'0 0.2
2017-Apr-01 06:30N 34°41' E 135°11'2 4.5
2017-Apr-01 06:00N 34°39' E 135°11'2 4.1
2017-Apr-01 05:30N 34°37' E 135°10'1 1.4
2017-Apr-01 05:00N 34°37' E 135°09'0 0.5
2017-Apr-01 04:30N 34°37' E 135°08'0 0.8
2017-Apr-01 04:00N 34°37' E 135°08'0 0.7
2017-Apr-01 03:30N 34°37' E 135°08'0 0.6
2017-Apr-01 02:59N 34°37' E 135°07'0 0.9
2017-Apr-01 02:30N 34°37' E 135°08'1 2.5
2017-Apr-01 02:00N 34°38' E 135°09'2 3.5
2017-Apr-01 01:30N 34°39' E 135°11'2 3.3
2017-Apr-01 01:00N 34°40' E 135°11'1 0.9
2017-Apr-01 00:10N 34°41' E 135°11'0 0.0
2017-Mar-31 23:58N 34°41' E 135°11'0 0.0
2017-Mar-31 23:20N 34°41' E 135°11'0 0.0
2017-Mar-31 22:56N 34°41' E 135°11'0 0.0
2017-Mar-31 22:26N 34°41' E 135°11'0 0.0
2017-Mar-31 21:56N 34°41' E 135°11'0 0.0
2017-Mar-31 21:26N 34°41' E 135°11'0 0.0
2017-Mar-31 20:56N 34°41' E 135°11'0 0.0
2017-Mar-31 20:26N 34°41' E 135°11'0 0.0
2017-Mar-31 19:56N 34°41' E 135°11'0 0.0
2017-Mar-31 19:26N 34°41' E 135°11'0 0.0
2017-Mar-31 18:56N 34°41' E 135°11'0 0.0
2017-Mar-31 18:26N 34°41' E 135°11'0 0.0
2017-Mar-31 17:56N 34°41' E 135°11'0 0.0
2017-Mar-31 17:26N 34°41' E 135°11'0 0.0
2017-Mar-31 16:50N 34°41' E 135°11'0 0.0
2017-Mar-31 16:26N 34°41' E 135°11'0 0.0
2017-Mar-31 15:50N 34°41' E 135°11'0 0.0
2017-Mar-31 15:14N 34°41' E 135°11'0 0.0
2017-Mar-31 14:56N 34°41' E 135°11'0 0.0
2017-Mar-31 14:26N 34°41' E 135°11'0 0.0
2017-Mar-31 13:26N 34°41' E 135°11'0 0.0
2017-Mar-31 12:56N 34°41' E 135°11'0 0.0
2017-Mar-31 12:26N 34°41' E 135°11'0 0.0
2017-Mar-31 11:56N 34°41' E 135°11'0 0.0
2017-Mar-31 11:26N 34°41' E 135°11'0 0.0
2017-Mar-31 10:56N 34°41' E 135°11'0 0.0
2017-Mar-31 10:20N 34°41' E 135°11'0 0.0
2017-Mar-31 09:56N 34°41' E 135°11'0 0.0
2017-Mar-31 09:26N 34°41' E 135°11'0 0.0
2017-Mar-31 08:56N 34°41' E 135°11'0 0.0
2017-Mar-31 08:26N 34°41' E 135°11'0 0.0
2017-Mar-31 07:56N 34°41' E 135°11'0 0.0
2017-Mar-31 07:26N 34°41' E 135°11'0 0.0
2017-Mar-31 06:56N 34°41' E 135°11'0 0.0
2017-Mar-31 06:26N 34°41' E 135°11'0 0.0
2017-Mar-31 05:50N 34°41' E 135°11'0 0.0
2017-Mar-31 05:20N 34°41' E 135°11'0 0.0
2017-Mar-31 04:56N 34°41' E 135°11'0 0.0
2017-Mar-31 04:26N 34°41' E 135°11'0 0.0
2017-Mar-31 03:26N 34°41' E 135°11'0 0.0
2017-Mar-31 02:20N 34°41' E 135°11'0 0.0
2017-Mar-31 01:32N 34°41' E 135°11'0 0.0
2017-Mar-31 00:32N 34°41' E 135°11'0 0.0
2017-Mar-30 23:32N 34°41' E 135°11'0 0.0
2017-Mar-30 22:26N 34°41' E 135°11'0 0.0
2017-Mar-30 21:20N 34°41' E 135°11'0 0.0
2017-Mar-30 20:32N 34°41' E 135°11'0 0.0
2017-Mar-30 19:32N 34°41' E 135°11'0 0.0
2017-Mar-30 18:32N 34°41' E 135°11'0 0.0
2017-Mar-30 17:32N 34°41' E 135°11'0 0.0
2017-Mar-30 16:32N 34°41' E 135°11'0 0.0
2017-Mar-30 15:20N 34°41' E 135°11'0 0.0
2017-Mar-30 14:32N 34°41' E 135°11'0 0.0
2017-Mar-30 13:32N 34°41' E 135°11'  

Dump ship's entire track history